sensor_id;sensor_type;location;lat;lon;timestamp;pressure;altitude;pressure_sealevel;temperature;humidity
72116;BME280;59991;52.140;5.428;2022-12-18T00:00:07;102898.78;;;-2.33;88.20
72116;BME280;59991;52.140;5.428;2022-12-18T00:00:43;102904.94;;;-2.32;88.44
72116;BME280;59991;52.140;5.428;2022-12-18T00:01:23;102906.56;;;-2.31;88.26
72116;BME280;59991;52.140;5.428;2022-12-18T00:01:57;102903.88;;;-2.31;88.00
72116;BME280;59991;52.140;5.428;2022-12-18T00:02:29;102904.41;;;-2.29;88.34
72116;BME280;59991;52.140;5.428;2022-12-18T00:03:01;102894.53;;;-2.29;88.33
72116;BME280;59991;52.140;5.428;2022-12-18T00:03:33;102896.41;;;-2.29;88.22
72116;BME280;59991;52.140;5.428;2022-12-18T00:04:07;102899.88;;;-2.29;88.11
72116;BME280;59991;52.140;5.428;2022-12-18T00:04:39;102896.16;;;-2.28;88.27
72116;BME280;59991;52.140;5.428;2022-12-18T00:05:11;102898.03;;;-2.28;88.00
72116;BME280;59991;52.140;5.428;2022-12-18T00:05:49;102897.22;;;-2.29;87.99
72116;BME280;59991;52.140;5.428;2022-12-18T00:06:23;102898.03;;;-2.28;87.88
72116;BME280;59991;52.140;5.428;2022-12-18T00:06:56;102891.88;;;-2.29;88.08
72116;BME280;59991;52.140;5.428;2022-12-18T00:07:27;102893.72;;;-2.29;88.16
72116;BME280;59991;52.140;5.428;2022-12-18T00:07:59;102890.25;;;-2.30;87.90
72116;BME280;59991;52.140;5.428;2022-12-18T00:08:32;102887.56;;;-2.30;87.79
72116;BME280;59991;52.140;5.428;2022-12-18T00:09:03;102892.91;;;-2.30;87.81
72116;BME280;59991;52.140;5.428;2022-12-18T00:09:35;102887.56;;;-2.30;87.95
72116;BME280;59991;52.140;5.428;2022-12-18T00:10:10;102887.56;;;-2.30;88.15
72116;BME280;59991;52.140;5.428;2022-12-18T00:10:45;102883.28;;;-2.31;88.12
72116;BME280;59991;52.140;5.428;2022-12-18T00:11:19;102876.88;;;-2.30;87.69
72116;BME280;59991;52.140;5.428;2022-12-18T00:11:51;102876.06;;;-2.30;87.73
72116;BME280;59991;52.140;5.428;2022-12-18T00:12:22;102880.38;;;-2.29;87.89
72116;BME280;59991;52.140;5.428;2022-12-18T00:12:54;102875.03;;;-2.29;87.85
72116;BME280;59991;52.140;5.428;2022-12-18T00:13:27;102877.69;;;-2.29;88.05
72116;BME280;59991;52.140;5.428;2022-12-18T00:13:59;102878.50;;;-2.29;88.07
72116;BME280;59991;52.140;5.428;2022-12-18T00:14:31;102879.56;;;-2.30;87.75
72116;BME280;59991;52.140;5.428;2022-12-18T00:15:03;102875.84;;;-2.29;87.99
72116;BME280;59991;52.140;5.428;2022-12-18T00:15:36;102878.50;;;-2.29;88.06
72116;BME280;59991;52.140;5.428;2022-12-18T00:16:17;102883.84;;;-2.29;87.92
72116;BME280;59991;52.140;5.428;2022-12-18T00:16:51;102879.31;;;-2.28;87.79
72116;BME280;59991;52.140;5.428;2022-12-18T00:17:23;102880.38;;;-2.29;87.98
72116;BME280;59991;52.140;5.428;2022-12-18T00:17:54;102878.50;;;-2.29;87.89
72116;BME280;59991;52.140;5.428;2022-12-18T00:18:26;102880.13;;;-2.28;87.73
72116;BME280;59991;52.140;5.428;2022-12-18T00:18:58;102884.66;;;-2.28;87.96
72116;BME280;59991;52.140;5.428;2022-12-18T00:19:30;102881.19;;;-2.29;87.80
72116;BME280;59991;52.140;5.428;2022-12-18T00:20:02;102882.81;;;-2.28;87.63
72116;BME280;59991;52.140;5.428;2022-12-18T00:20:38;102877.69;;;-2.29;87.82
72116;BME280;59991;52.140;5.428;2022-12-18T00:21:11;102879.31;;;-2.28;88.01
72116;BME280;59991;52.140;5.428;2022-12-18T00:21:43;102885.47;;;-2.28;87.79
72116;BME280;59991;52.140;5.428;2022-12-18T00:22:15;102889.19;;;-2.29;87.44
72116;BME280;59991;52.140;5.428;2022-12-18T00:22:46;102881.19;;;-2.29;87.71
72116;BME280;59991;52.140;5.428;2022-12-18T00:23:18;102881.69;;;-2.32;87.45
72116;BME280;59991;52.140;5.428;2022-12-18T00:23:50;102887.50;;;-2.35;87.48
72116;BME280;59991;52.140;5.428;2022-12-18T00:24:22;102874.38;;;-2.36;87.50
72116;BME280;59991;52.140;5.428;2022-12-18T00:24:54;102884.50;;;-2.38;87.48
72116;BME280;59991;52.140;5.428;2022-12-18T00:25:25;102887.41;;;-2.40;87.54
72116;BME280;59991;52.140;5.428;2022-12-18T00:26:05;102884.16;;;-2.42;87.39
72116;BME280;59991;52.140;5.428;2022-12-18T00:26:38;102892.41;;;-2.44;87.46
72116;BME280;59991;52.140;5.428;2022-12-18T00:27:10;102891.59;;;-2.44;87.54
72116;BME280;59991;52.140;5.428;2022-12-18T00:27:41;102887.88;;;-2.43;87.64
72116;BME280;59991;52.140;5.428;2022-12-18T00:28:13;102891.13;;;-2.41;87.85
72116;BME280;59991;52.140;5.428;2022-12-18T00:28:45;102897.28;;;-2.40;88.24
72116;BME280;59991;52.140;5.428;2022-12-18T00:29:17;102889.28;;;-2.40;88.00
72116;BME280;59991;52.140;5.428;2022-12-18T00:29:48;102891.69;;;-2.39;87.66
72116;BME280;59991;52.140;5.428;2022-12-18T00:30:20;102895.19;;;-2.38;87.98
72116;BME280;59991;52.140;5.428;2022-12-18T00:31:09;102895.19;;;-2.38;87.67
72116;BME280;59991;52.140;5.428;2022-12-18T00:31:42;102894.13;;;-2.37;87.73
72116;BME280;59991;52.140;5.428;2022-12-18T00:32:14;102892.28;;;-2.37;88.23
72116;BME280;59991;52.140;5.428;2022-12-18T00:32:45;102894.94;;;-2.37;88.04
72116;BME280;59991;52.140;5.428;2022-12-18T00:33:17;102892.28;;;-2.37;87.62
72116;BME280;59991;52.140;5.428;2022-12-18T00:33:49;102887.97;;;-2.38;87.60
72116;BME280;59991;52.140;5.428;2022-12-18T00:34:25;102890.09;;;-2.40;87.91
72116;BME280;59991;52.140;5.428;2022-12-18T00:34:57;102886.03;;;-2.42;87.70
72116;BME280;59991;52.140;5.428;2022-12-18T00:35:28;102883.00;;;-2.46;87.66
72116;BME280;59991;52.140;5.428;2022-12-18T00:36:09;102877.34;;;-2.50;87.54
72116;BME280;59991;52.140;5.428;2022-12-18T00:36:41;102874.94;;;-2.51;87.66
72116;BME280;59991;52.140;5.428;2022-12-18T00:37:13;102876.53;;;-2.50;87.87
72116;BME280;59991;52.140;5.428;2022-12-18T00:37:50;102875.75;;;-2.51;87.56
72116;BME280;59991;52.140;5.428;2022-12-18T00:38:22;102881.88;;;-2.50;87.67
72116;BME280;59991;52.140;5.428;2022-12-18T00:38:54;102879.19;;;-2.50;88.07
72116;BME280;59991;52.140;5.428;2022-12-18T00:39:26;102878.16;;;-2.49;88.03
72116;BME280;59991;52.140;5.428;2022-12-18T00:39:58;102876.53;;;-2.50;87.97
72116;BME280;59991;52.140;5.428;2022-12-18T00:40:30;102878.66;;;-2.52;87.68
72116;BME280;59991;52.140;5.428;2022-12-18T00:41:01;102884.47;;;-2.55;87.43
72116;BME280;59991;52.140;5.428;2022-12-18T00:41:36;102878.78;;;-2.59;87.61
72116;BME280;59991;52.140;5.428;2022-12-18T00:42:26;102878.78;;;-2.59;87.55
72116;BME280;59991;52.140;5.428;2022-12-18T00:43:16;102873.44;;;-2.59;87.78
72116;BME280;59991;52.140;5.428;2022-12-18T00:43:47;102877.97;;;-2.59;88.06
72116;BME280;59991;52.140;5.428;2022-12-18T00:44:19;102872.63;;;-2.59;87.72
72116;BME280;59991;52.140;5.428;2022-12-18T00:44:51;102874.25;;;-2.58;88.04
72116;BME280;59991;52.140;5.428;2022-12-18T00:45:27;102871.34;;;-2.57;88.31
72116;BME280;59991;52.140;5.428;2022-12-18T00:45:59;102878.31;;;-2.56;88.17
72116;BME280;59991;52.140;5.428;2022-12-18T00:46:31;102875.88;;;-2.57;88.02
72116;BME280;59991;52.140;5.428;2022-12-18T00:47:03;102878.31;;;-2.56;88.15
72116;BME280;59991;52.140;5.428;2022-12-18T00:47:52;102881.44;;;-2.59;87.53
72116;BME280;59991;52.140;5.428;2022-12-18T00:48:23;102883.31;;;-2.59;87.71
72116;BME280;59991;52.140;5.428;2022-12-18T00:48:55;102876.13;;;-2.59;87.79
72116;BME280;59991;52.140;5.428;2022-12-18T00:49:26;102881.44;;;-2.59;88.07
72116;BME280;59991;52.140;5.428;2022-12-18T00:49:58;102883.88;;;-2.57;87.80
72116;BME280;59991;52.140;5.428;2022-12-18T00:50:30;102884.69;;;-2.57;88.09
72116;BME280;59991;52.140;5.428;2022-12-18T00:51:02;102880.41;;;-2.58;88.16
72116;BME280;59991;52.140;5.428;2022-12-18T00:51:33;102882.84;;;-2.56;88.09
72116;BME280;59991;52.140;5.428;2022-12-18T00:52:05;102885.50;;;-2.56;88.01
72116;BME280;59991;52.140;5.428;2022-12-18T00:52:36;102881.78;;;-2.55;87.85
72116;BME280;59991;52.140;5.428;2022-12-18T00:53:08;102883.41;;;-2.54;88.07
72116;BME280;59991;52.140;5.428;2022-12-18T00:53:39;102881.78;;;-2.55;87.89
72116;BME280;59991;52.140;5.428;2022-12-18T00:54:12;102883.66;;;-2.56;87.99
72116;BME280;59991;52.140;5.428;2022-12-18T00:54:44;102877.50;;;-2.56;87.93
72116;BME280;59991;52.140;5.428;2022-12-18T00:55:16;102882.03;;;-2.57;87.80
72116;BME280;59991;52.140;5.428;2022-12-18T00:55:47;102880.66;;;-2.59;87.64
72116;BME280;59991;52.140;5.428;2022-12-18T00:56:23;102881.69;;;-2.60;87.75
72116;BME280;59991;52.140;5.428;2022-12-18T00:56:54;102879.25;;;-2.62;87.55
72116;BME280;59991;52.140;5.428;2022-12-18T00:57:26;102876.81;;;-2.63;87.72
72116;BME280;59991;52.140;5.428;2022-12-18T00:57:58;102874.97;;;-2.63;88.06
72116;BME280;59991;52.140;5.428;2022-12-18T00:58:29;102885.41;;;-2.61;87.82
72116;BME280;59991;52.140;5.428;2022-12-18T00:59:01;102885.41;;;-2.61;87.94
72116;BME280;59991;52.140;5.428;2022-12-18T00:59:32;102874.72;;;-2.61;88.06
72116;BME280;59991;52.140;5.428;2022-12-18T01:00:05;102874.97;;;-2.63;87.88
72116;BME280;59991;52.140;5.428;2022-12-18T01:00:37;102881.13;;;-2.62;87.88
72116;BME280;59991;52.140;5.428;2022-12-18T01:01:09;102873.09;;;-2.62;88.05
72116;BME280;59991;52.140;5.428;2022-12-18T01:01:40;102873.09;;;-2.62;87.97
72116;BME280;59991;52.140;5.428;2022-12-18T01:02:12;102873.69;;;-2.60;87.93
72116;BME280;59991;52.140;5.428;2022-12-18T01:02:44;102877.16;;;-2.60;88.07
72116;BME280;59991;52.140;5.428;2022-12-18T01:03:16;102873.44;;;-2.59;87.94
72116;BME280;59991;52.140;5.428;2022-12-18T01:03:48;102875.06;;;-2.58;87.87
72116;BME280;59991;52.140;5.428;2022-12-18T01:04:19;102875.88;;;-2.57;88.10
72116;BME280;59991;52.140;5.428;2022-12-18T01:04:51;102874.84;;;-2.56;87.99
72116;BME280;59991;52.140;5.428;2022-12-18T01:05:23;102871.94;;;-2.55;87.83
72116;BME280;59991;52.140;5.428;2022-12-18T01:05:54;102868.44;;;-2.55;88.02
72116;BME280;59991;52.140;5.428;2022-12-18T01:06:26;102864.97;;;-2.56;88.02
72116;BME280;59991;52.140;5.428;2022-12-18T01:06:57;102869.50;;;-2.56;88.02
72116;BME280;59991;52.140;5.428;2022-12-18T01:07:29;102871.34;;;-2.57;87.79
72116;BME280;59991;52.140;5.428;2022-12-18T01:08:00;102866.81;;;-2.56;87.65
72116;BME280;59991;52.140;5.428;2022-12-18T01:08:32;102871.34;;;-2.57;87.94
72116;BME280;59991;52.140;5.428;2022-12-18T01:09:03;102863.56;;;-2.58;87.78
72116;BME280;59991;52.140;5.428;2022-12-18T01:09:35;102865.66;;;-2.60;87.45
72116;BME280;59991;52.140;5.428;2022-12-18T01:10:08;102864.28;;;-2.63;87.73
72116;BME280;59991;52.140;5.428;2022-12-18T01:10:40;102861.63;;;-2.63;87.55
72116;BME280;59991;52.140;5.428;2022-12-18T01:11:16;102863.72;;;-2.65;87.57
72116;BME280;59991;52.140;5.428;2022-12-18T01:11:48;102862.31;;;-2.67;87.62
72116;BME280;59991;52.140;5.428;2022-12-18T01:12:19;102868.72;;;-2.68;87.81
72116;BME280;59991;52.140;5.428;2022-12-18T01:12:51;102864.44;;;-2.69;87.68
72116;BME280;59991;52.140;5.428;2022-12-18T01:13:23;102861.50;;;-2.68;87.85
72116;BME280;59991;52.140;5.428;2022-12-18T01:13:54;102859.66;;;-2.67;87.90
72116;BME280;59991;52.140;5.428;2022-12-18T01:14:26;102862.09;;;-2.66;87.91
72116;BME280;59991;52.140;5.428;2022-12-18T01:14:57;102867.19;;;-2.64;87.85
72116;BME280;59991;52.140;5.428;2022-12-18T01:15:29;102864.53;;;-2.64;87.85
72116;BME280;59991;52.140;5.428;2022-12-18T01:16:01;102863.13;;;-2.67;87.87
72116;BME280;59991;52.140;5.428;2022-12-18T01:16:32;102868.72;;;-2.68;87.70
72116;BME280;59991;52.140;5.428;2022-12-18T01:17:04;102870.84;;;-2.70;87.57
72116;BME280;59991;52.140;5.428;2022-12-18T01:17:36;102868.63;;;-2.73;87.72
72116;BME280;59991;52.140;5.428;2022-12-18T01:18:07;102868.88;;;-2.75;87.69
72116;BME280;59991;52.140;5.428;2022-12-18T01:18:39;102868.88;;;-2.75;87.72
72116;BME280;59991;52.140;5.428;2022-12-18T01:19:10;102876.66;;;-2.73;88.08
72116;BME280;59991;52.140;5.428;2022-12-18T01:19:42;102868.63;;;-2.73;87.99
72116;BME280;59991;52.140;5.428;2022-12-18T01:20:14;102872.13;;;-2.73;88.28
72116;BME280;59991;52.140;5.428;2022-12-18T01:20:46;102864.09;;;-2.73;87.96
72116;BME280;59991;52.140;5.428;2022-12-18T01:21:17;102870.25;;;-2.72;88.03
72116;BME280;59991;52.140;5.428;2022-12-18T01:21:49;102874.56;;;-2.71;88.00
72116;BME280;59991;52.140;5.428;2022-12-18T01:22:20;102870.03;;;-2.71;87.95
72116;BME280;59991;52.140;5.428;2022-12-18T01:22:52;102870.84;;;-2.70;88.22
72116;BME280;59991;52.140;5.428;2022-12-18T01:23:24;102865.22;;;-2.69;88.05
72116;BME280;59991;52.140;5.428;2022-12-18T01:23:56;102875.66;;;-2.67;88.12
72116;BME280;59991;52.140;5.428;2022-12-18T01:24:28;102875.66;;;-2.67;88.44
72116;BME280;59991;52.140;5.428;2022-12-18T01:25:00;102874.63;;;-2.66;88.05
72116;BME280;59991;52.140;5.428;2022-12-18T01:25:32;102869.28;;;-2.66;88.01
72116;BME280;59991;52.140;5.428;2022-12-18T01:26:07;102880.53;;;-2.64;88.21
72116;BME280;59991;52.140;5.428;2022-12-18T01:26:38;102878.69;;;-2.64;88.03
72116;BME280;59991;52.140;5.428;2022-12-18T01:27:10;102880.31;;;-2.63;88.19
72116;BME280;59991;52.140;5.428;2022-12-18T01:27:42;102876.81;;;-2.63;88.20
72116;BME280;59991;52.140;5.428;2022-12-18T01:28:13;102882.75;;;-2.61;88.25
72116;BME280;59991;52.140;5.428;2022-12-18T01:28:45;102886.47;;;-2.62;87.88
72116;BME280;59991;52.140;5.428;2022-12-18T01:29:16;102890.75;;;-2.61;87.86
72116;BME280;59991;52.140;5.428;2022-12-18T01:29:49;102886.22;;;-2.61;87.86
72116;BME280;59991;52.140;5.428;2022-12-18T01:30:20;102888.09;;;-2.61;87.97
72116;BME280;59991;52.140;5.428;2022-12-18T01:30:52;102892.38;;;-2.60;87.84
72116;BME280;59991;52.140;5.428;2022-12-18T01:31:25;102882.16;;;-2.63;88.08
72116;BME280;59991;52.140;5.428;2022-12-18T01:31:57;102890.75;;;-2.61;87.91
72116;BME280;59991;52.140;5.428;2022-12-18T01:32:30;102887.28;;;-2.62;88.15
72116;BME280;59991;52.140;5.428;2022-12-18T01:33:04;102889.69;;;-2.60;88.27
72116;BME280;59991;52.140;5.428;2022-12-18T01:33:36;102887.84;;;-2.60;87.78
72116;BME280;59991;52.140;5.428;2022-12-18T01:34:08;102897.47;;;-2.59;87.84
72116;BME280;59991;52.140;5.428;2022-12-18T01:34:40;102894.00;;;-2.59;87.66
72116;BME280;59991;52.140;5.428;2022-12-18T01:35:12;102892.13;;;-2.59;87.73
72116;BME280;59991;52.140;5.428;2022-12-18T01:35:43;102885.19;;;-2.60;87.68
72116;BME280;59991;52.140;5.428;2022-12-18T01:36:35;102887.59;;;-2.58;87.78
72116;BME280;59991;52.140;5.428;2022-12-18T01:37:06;102899.34;;;-2.59;87.63
72116;BME280;59991;52.140;5.428;2022-12-18T01:37:38;102894.81;;;-2.59;87.83
72116;BME280;59991;52.140;5.428;2022-12-18T01:38:10;102893.19;;;-2.60;87.84
72116;BME280;59991;52.140;5.428;2022-12-18T01:38:42;102897.72;;;-2.60;87.76
72116;BME280;59991;52.140;5.428;2022-12-18T01:39:14;102892.59;;;-2.62;87.53
72116;BME280;59991;52.140;5.428;2022-12-18T01:39:46;102889.13;;;-2.62;87.97
72116;BME280;59991;52.140;5.428;2022-12-18T01:40:17;102896.09;;;-2.61;87.69
72116;BME280;59991;52.140;5.428;2022-12-18T01:40:49;102894.47;;;-2.62;87.75
72116;BME280;59991;52.140;5.428;2022-12-18T01:41:25;102893.66;;;-2.63;87.70
72116;BME280;59991;52.140;5.428;2022-12-18T01:42:01;102891.47;;;-2.66;87.44
72116;BME280;59991;52.140;5.428;2022-12-18T01:42:35;102891.69;;;-2.67;87.86
72116;BME280;59991;52.140;5.428;2022-12-18T01:43:09;102902.38;;;-2.67;87.82
72116;BME280;59991;52.140;5.428;2022-12-18T01:43:58;102900.53;;;-2.67;87.69
72116;BME280;59991;52.140;5.428;2022-12-18T01:45:31;102893.31;;;-2.66;87.75
72116;BME280;59991;52.140;5.428;2022-12-18T01:46:03;102889.84;;;-2.67;87.75
72116;BME280;59991;52.140;5.428;2022-12-18T01:46:35;102895.19;;;-2.67;87.82
72116;BME280;59991;52.140;5.428;2022-12-18T01:47:06;102897.03;;;-2.67;87.89
72116;BME280;59991;52.140;5.428;2022-12-18T01:47:44;102897.03;;;-2.67;87.53
72116;BME280;59991;52.140;5.428;2022-12-18T01:48:16;102899.47;;;-2.66;87.55
72116;BME280;59991;52.140;5.428;2022-12-18T01:48:50;102893.31;;;-2.66;88.04
72116;BME280;59991;52.140;5.428;2022-12-18T01:49:22;102900.28;;;-2.65;87.57
72116;BME280;59991;52.140;5.428;2022-12-18T01:49:55;102899.47;;;-2.66;87.70
72116;BME280;59991;52.140;5.428;2022-12-18T01:50:34;102895.19;;;-2.67;87.68
72116;BME280;59991;52.140;5.428;2022-12-18T01:51:09;102899.47;;;-2.66;87.58
72116;BME280;59991;52.140;5.428;2022-12-18T01:51:43;102893.31;;;-2.66;87.72
72116;BME280;59991;52.140;5.428;2022-12-18T01:52:17;102897.03;;;-2.67;87.88
72116;BME280;59991;52.140;5.428;2022-12-18T01:52:54;102897.28;;;-2.69;87.49
72116;BME280;59991;52.140;5.428;2022-12-18T01:53:26;102894.88;;;-2.70;87.70
72116;BME280;59991;52.140;5.428;2022-12-18T01:54:50;102899.63;;;-2.72;87.46
72116;BME280;59991;52.140;5.428;2022-12-18T01:55:25;102895.09;;;-2.72;87.62
72116;BME280;59991;52.140;5.428;2022-12-18T01:55:58;102890.00;;;-2.73;87.65
72116;BME280;59991;52.140;5.428;2022-12-18T01:56:30;102894.28;;;-2.72;87.69
72116;BME280;59991;52.140;5.428;2022-12-18T01:57:02;102894.28;;;-2.72;87.86
72116;BME280;59991;52.140;5.428;2022-12-18T01:57:34;102895.34;;;-2.73;87.85
72116;BME280;59991;52.140;5.428;2022-12-18T01:58:06;102892.66;;;-2.73;87.49
72116;BME280;59991;52.140;5.428;2022-12-18T01:59:18;102896.63;;;-2.76;87.54
72116;BME280;59991;52.140;5.428;2022-12-18T01:59:52;102892.91;;;-2.75;87.52
72116;BME280;59991;52.140;5.428;2022-12-18T02:00:25;102896.38;;;-2.74;87.33
72116;BME280;59991;52.140;5.428;2022-12-18T02:00:57;102887.78;;;-2.76;87.65
72116;BME280;59991;52.140;5.428;2022-12-18T02:01:30;102891.28;;;-2.76;87.79
72116;BME280;59991;52.140;5.428;2022-12-18T02:02:02;102893.94;;;-2.76;87.49
72116;BME280;59991;52.140;5.428;2022-12-18T02:02:35;102892.31;;;-2.77;87.34
72116;BME280;59991;52.140;5.428;2022-12-18T02:03:06;102898.47;;;-2.76;87.56
72116;BME280;59991;52.140;5.428;2022-12-18T02:03:41;102896.03;;;-2.78;87.76
72116;BME280;59991;52.140;5.428;2022-12-18T02:04:26;102899.53;;;-2.78;87.81
72116;BME280;59991;52.140;5.428;2022-12-18T02:04:58;102893.38;;;-2.78;87.78
72116;BME280;59991;52.140;5.428;2022-12-18T02:05:49;102895.22;;;-2.79;87.51
72116;BME280;59991;52.140;5.428;2022-12-18T02:06:33;102898.13;;;-2.80;87.23
72116;BME280;59991;52.140;5.428;2022-12-18T02:08:41;102908.00;;;-2.81;87.60
72116;BME280;59991;52.140;5.428;2022-12-18T02:09:20;102904.75;;;-2.83;87.85
72116;BME280;59991;52.140;5.428;2022-12-18T02:10:02;102901.50;;;-2.85;87.73
72116;BME280;59991;52.140;5.428;2022-12-18T02:10:53;102913.00;;;-2.84;87.55
72116;BME280;59991;52.140;5.428;2022-12-18T02:11:59;102906.84;;;-2.85;87.56
72116;BME280;59991;52.140;5.428;2022-12-18T02:12:43;102909.75;;;-2.86;87.52
72116;BME280;59991;52.140;5.428;2022-12-18T02:14:38;102901.97;;;-2.88;87.47
72116;BME280;59991;52.140;5.428;2022-12-18T02:15:22;102909.16;;;-2.88;87.55
72116;BME280;59991;52.140;5.428;2022-12-18T02:16:09;102897.13;;;-2.91;87.53
72116;BME280;59991;52.140;5.428;2022-12-18T02:17:18;102899.00;;;-2.91;87.50
72116;BME280;59991;52.140;5.428;2022-12-18T02:17:57;102898.19;;;-2.92;87.41
72116;BME280;59991;52.140;5.428;2022-12-18T02:18:36;102896.56;;;-2.93;87.66
72116;BME280;59991;52.140;5.428;2022-12-18T02:19:25;102894.94;;;-2.94;87.17
72116;BME280;59991;52.140;5.428;2022-12-18T02:20:28;102898.41;;;-2.93;87.42
72116;BME280;59991;52.140;5.428;2022-12-18T02:21:57;102903.16;;;-2.95;87.26
72116;BME280;59991;52.140;5.428;2022-12-18T02:22:52;102896.44;;;-2.98;87.64
72116;BME280;59991;52.140;5.428;2022-12-18T02:24:28;102907.13;;;-2.98;87.16
72116;BME280;59991;52.140;5.428;2022-12-18T02:25:59;102896.69;;;-2.99;87.43
72116;BME280;59991;52.140;5.428;2022-12-18T02:26:36;102902.25;;;-3.01;87.33
72116;BME280;59991;52.140;5.428;2022-12-18T02:27:11;102902.25;;;-3.01;87.35
72116;BME280;59991;52.140;5.428;2022-12-18T02:27:46;102906.78;;;-3.01;87.33
72116;BME280;59991;52.140;5.428;2022-12-18T02:28:21;102903.28;;;-3.02;87.22
72116;BME280;59991;52.140;5.428;2022-12-18T02:29:44;102908.88;;;-3.03;87.17
72116;BME280;59991;52.140;5.428;2022-12-18T02:30:23;102908.88;;;-3.03;87.15
72116;BME280;59991;52.140;5.428;2022-12-18T02:30:56;102905.38;;;-3.04;87.24
72116;BME280;59991;52.140;5.428;2022-12-18T02:31:36;102911.75;;;-3.05;87.14
72116;BME280;59991;52.140;5.428;2022-12-18T02:32:14;102905.63;;;-3.05;86.93
72116;BME280;59991;52.140;5.428;2022-12-18T02:32:50;102914.66;;;-3.06;86.86
72116;BME280;59991;52.140;5.428;2022-12-18T02:33:24;102904.00;;;-3.06;87.04
72116;BME280;59991;52.140;5.428;2022-12-18T02:34:00;102905.84;;;-3.07;86.92
72116;BME280;59991;52.140;5.428;2022-12-18T02:34:37;102904.50;;;-3.09;86.91
72116;BME280;59991;52.140;5.428;2022-12-18T02:35:13;102899.16;;;-3.09;86.96
72116;BME280;59991;52.140;5.428;2022-12-18T02:35:45;102903.44;;;-3.08;87.12
72116;BME280;59991;52.140;5.428;2022-12-18T02:36:18;102905.28;;;-3.09;86.78
72116;BME280;59991;52.140;5.428;2022-12-18T02:36:53;102909.00;;;-3.10;87.14
72116;BME280;59991;52.140;5.428;2022-12-18T02:37:27;102903.91;;;-3.11;87.10
72116;BME280;59991;52.140;5.428;2022-12-18T02:37:59;102906.56;;;-3.11;86.71
72116;BME280;59991;52.140;5.428;2022-12-18T02:38:31;102911.91;;;-3.11;86.81
72116;BME280;59991;52.140;5.428;2022-12-18T02:39:07;102906.81;;;-3.13;86.62
72116;BME280;59991;52.140;5.428;2022-12-18T02:39:42;102904.13;;;-3.13;86.68
72116;BME280;59991;52.140;5.428;2022-12-18T02:40:15;102900.66;;;-3.14;86.68
72116;BME280;59991;52.140;5.428;2022-12-18T02:40:49;102903.31;;;-3.14;86.70
72116;BME280;59991;52.140;5.428;2022-12-18T02:41:22;102899.84;;;-3.14;86.64
72116;BME280;59991;52.140;5.428;2022-12-18T02:41:54;102896.38;;;-3.15;86.38
72116;BME280;59991;52.140;5.428;2022-12-18T02:42:27;102898.22;;;-3.15;86.88
72116;BME280;59991;52.140;5.428;2022-12-18T02:43:13;102895.56;;;-3.15;86.56
72116;BME280;59991;52.140;5.428;2022-12-18T02:43:52;102895.78;;;-3.17;86.53
72116;BME280;59991;52.140;5.428;2022-12-18T02:44:25;102893.94;;;-3.16;86.64
72116;BME280;59991;52.140;5.428;2022-12-18T02:44:56;102897.63;;;-3.17;86.53
72116;BME280;59991;52.140;5.428;2022-12-18T02:45:28;102896.00;;;-3.18;86.65
72116;BME280;59991;52.140;5.428;2022-12-18T02:46:00;102895.22;;;-3.19;86.31
72116;BME280;59991;52.140;5.428;2022-12-18T02:46:53;102893.34;;;-3.18;86.55
72116;BME280;59991;52.140;5.428;2022-12-18T02:47:29;102890.91;;;-3.20;86.63
72116;BME280;59991;52.140;5.428;2022-12-18T02:48:02;102885.56;;;-3.20;86.63
72116;BME280;59991;52.140;5.428;2022-12-18T02:48:35;102887.44;;;-3.20;86.35
72116;BME280;59991;52.140;5.428;2022-12-18T02:50:02;102882.31;;;-3.22;86.35
72116;BME280;59991;52.140;5.428;2022-12-18T02:50:38;102884.19;;;-3.22;86.61
72116;BME280;59991;52.140;5.428;2022-12-18T02:52:28;102880.13;;;-3.25;86.56
72116;BME280;59991;52.140;5.428;2022-12-18T02:53:17;102873.16;;;-3.26;86.17
72116;BME280;59991;52.140;5.428;2022-12-18T02:53:57;102876.88;;;-3.27;86.29
72116;BME280;59991;52.140;5.428;2022-12-18T02:54:49;102878.75;;;-3.27;86.38
72116;BME280;59991;52.140;5.428;2022-12-18T02:55:43;102885.16;;;-3.28;86.18
72116;BME280;59991;52.140;5.428;2022-12-18T02:56:26;102887.00;;;-3.29;86.12
72116;BME280;59991;52.140;5.428;2022-12-18T02:57:09;102879.22;;;-3.30;86.37
72116;BME280;59991;52.140;5.428;2022-12-18T02:57:53;102880.03;;;-3.30;86.34
72116;BME280;59991;52.140;5.428;2022-12-18T02:59:23;102881.31;;;-3.32;86.13
72116;BME280;59991;52.140;5.428;2022-12-18T03:00:10;102876.22;;;-3.34;86.14
72116;BME280;59991;52.140;5.428;2022-12-18T03:00:53;102880.72;;;-3.34;86.03
72116;BME280;59991;52.140;5.428;2022-12-18T03:01:38;102875.41;;;-3.34;85.96
72116;BME280;59991;52.140;5.428;2022-12-18T03:02:21;102879.09;;;-3.35;86.08
72116;BME280;59991;52.140;5.428;2022-12-18T03:03:05;102880.16;;;-3.36;86.25
72116;BME280;59991;52.140;5.428;2022-12-18T03:03:47;102882.81;;;-3.36;86.03
72116;BME280;59991;52.140;5.428;2022-12-18T03:04:42;102873.19;;;-3.37;86.14
72116;BME280;59991;52.140;5.428;2022-12-18T03:05:19;102878.75;;;-3.39;86.10
72116;BME280;59991;52.140;5.428;2022-12-18T03:06:54;102869.13;;;-3.40;86.00
72116;BME280;59991;52.140;5.428;2022-12-18T03:07:38;102868.31;;;-3.40;86.27
72116;BME280;59991;52.140;5.428;2022-12-18T03:08:27;102871.22;;;-3.42;86.17
72116;BME280;59991;52.140;5.428;2022-12-18T03:09:18;102866.13;;;-3.43;85.76
72116;BME280;59991;52.140;5.428;2022-12-18T03:09:53;102858.91;;;-3.43;85.84
72116;BME280;59991;52.140;5.428;2022-12-18T03:10:32;102860.19;;;-3.45;85.77
72116;BME280;59991;52.140;5.428;2022-12-18T03:11:09;102862.88;;;-3.45;85.77
72116;BME280;59991;52.140;5.428;2022-12-18T03:11:46;102862.88;;;-3.45;85.70
72116;BME280;59991;52.140;5.428;2022-12-18T03:12:44;102862.31;;;-3.47;85.85
72116;BME280;59991;52.140;5.428;2022-12-18T03:13:25;102862.31;;;-3.47;85.56
72116;BME280;59991;52.140;5.428;2022-12-18T03:13:59;102858.03;;;-3.49;85.54
72116;BME280;59991;52.140;5.428;2022-12-18T03:14:34;102855.34;;;-3.49;85.57
72116;BME280;59991;52.140;5.428;2022-12-18T03:15:16;102857.22;;;-3.49;85.41
72116;BME280;59991;52.140;5.428;2022-12-18T03:15:50;102867.31;;;-3.51;85.50
72116;BME280;59991;52.140;5.428;2022-12-18T03:16:27;102861.16;;;-3.52;85.39